createdAt,value
2019-04-29T00:02:43.670Z,86.50
2019-04-29T00:05:14.004Z,85.30
2019-04-29T00:07:42.469Z,87.00
2019-04-29T00:10:13.734Z,87.90
2019-04-29T00:12:42.957Z,88.90
2019-04-29T00:15:44.227Z,87.10
2019-04-29T00:18:20.027Z,86.20
2019-04-29T00:20:50.736Z,86.90
2019-04-29T00:23:19.941Z,87.90
2019-04-29T00:25:49.159Z,87.90
2019-04-29T00:28:18.428Z,87.30
2019-04-29T00:30:47.785Z,88.30
2019-04-29T00:33:17.131Z,87.30
2019-04-29T00:35:46.231Z,88.10
2019-04-29T00:38:34.608Z,88.00
2019-04-29T00:41:21.939Z,87.80
2019-04-29T00:43:56.406Z,86.70
2019-04-29T00:46:25.653Z,88.30
2019-04-29T00:48:54.908Z,87.00
2019-04-29T00:51:24.163Z,86.80
2019-04-29T00:53:56.952Z,87.60
2019-04-29T00:56:25.978Z,87.60
2019-04-29T00:58:55.056Z,87.30
2019-04-29T01:01:26.039Z,87.20
2019-04-29T01:03:55.246Z,87.60
2019-04-29T01:06:24.594Z,88.10
2019-04-29T01:08:54.004Z,87.90
2019-04-29T01:11:23.193Z,87.90
2019-04-29T01:13:52.452Z,88.10
2019-04-29T01:16:21.702Z,87.70
2019-04-29T01:18:50.851Z,87.90
2019-04-29T01:21:20.015Z,88.70
2019-04-29T01:23:49.032Z,89.00
2019-04-29T01:26:43.525Z,89.30
2019-04-29T01:29:14.405Z,89.40
2019-04-29T01:31:43.763Z,89.50
2019-04-29T01:34:29.045Z,89.90
2019-04-29T01:36:58.177Z,90.80
2019-04-29T01:39:35.992Z,90.80
2019-04-29T01:42:14.152Z,90.60
2019-04-29T01:44:43.393Z,90.70
2019-04-29T01:47:12.627Z,90.40
2019-04-29T01:49:41.873Z,91.20
2019-04-29T01:52:11.099Z,91.20
2019-04-29T01:54:40.339Z,91.30
2019-04-29T01:57:09.762Z,91.50
2019-04-29T01:59:39.088Z,91.60
2019-04-29T02:02:08.464Z,91.90
2019-04-29T02:04:37.704Z,91.80
2019-04-29T02:07:07.022Z,92.00
2019-04-29T02:09:41.060Z,92.20
2019-04-29T02:12:10.167Z,92.00
2019-04-29T02:14:39.398Z,92.20
2019-04-29T02:17:08.665Z,92.30
2019-04-29T02:19:37.904Z,92.20
2019-04-29T02:22:35.071Z,92.20
2019-04-29T02:25:13.064Z,92.20
2019-04-29T02:27:42.319Z,92.50
2019-04-29T02:30:13.238Z,92.40
2019-04-29T02:32:42.405Z,92.80
2019-04-29T02:35:11.739Z,92.50
2019-04-29T02:37:42.565Z,92.70
2019-04-29T02:40:21.849Z,92.80
2019-04-29T02:42:57.837Z,92.70
2019-04-29T02:45:30.832Z,93.10
2019-04-29T02:48:00.174Z,92.60
2019-04-29T02:50:29.552Z,92.60
2019-04-29T02:52:58.831Z,92.90
2019-04-29T02:55:32.450Z,92.90
2019-04-29T02:58:06.688Z,93.20
2019-04-29T03:01:01.395Z,93.40
2019-04-29T03:03:55.976Z,93.00
2019-04-29T03:06:25.279Z,93.20
2019-04-29T03:08:54.557Z,93.50
2019-04-29T03:11:23.854Z,93.40
2019-04-29T03:13:53.054Z,93.20
2019-04-29T03:16:22.331Z,93.80
2019-04-29T03:18:57.204Z,93.70
2019-04-29T03:21:38.447Z,93.50
2019-04-29T03:24:07.686Z,93.30
2019-04-29T03:26:37.172Z,93.40
2019-04-29T03:29:08.800Z,93.50
2019-04-29T03:31:39.431Z,93.50
2019-04-29T03:34:08.827Z,93.70
2019-04-29T03:36:38.013Z,93.70
2019-04-29T03:39:07.450Z,93.70
2019-04-29T03:41:36.774Z,93.70
2019-04-29T03:44:06.279Z,93.70
2019-04-29T03:46:39.805Z,93.80
2019-04-29T03:49:08.945Z,94.10
2019-04-29T03:51:38.042Z,94.10
2019-04-29T03:54:10.448Z,93.80
2019-04-29T03:56:41.119Z,94.10
2019-04-29T03:59:10.560Z,93.90
2019-04-29T04:01:57.536Z,94.00
2019-04-29T04:04:48.847Z,94.00
2019-04-29T04:07:55.753Z,94.10
2019-04-29T04:10:25.341Z,94.20
2019-04-29T04:12:54.650Z,94.20
2019-04-29T04:15:23.898Z,94.20
2019-04-29T04:18:18.119Z,94.10
2019-04-29T04:20:47.560Z,94.20
2019-04-29T04:23:16.763Z,94.40
2019-04-29T04:25:45.983Z,94.10
2019-04-29T04:28:15.213Z,94.20
2019-04-29T04:30:44.325Z,94.50
2019-04-29T04:33:13.638Z,94.40
2019-04-29T04:35:42.786Z,94.20
2019-04-29T04:38:12.043Z,94.20
2019-04-29T04:40:48.695Z,94.20
2019-04-29T04:43:18.038Z,94.30
2019-04-29T04:45:47.321Z,94.40
2019-04-29T04:48:16.689Z,94.40
2019-04-29T04:50:45.885Z,94.50
2019-04-29T04:53:15.137Z,94.50
2019-04-29T04:55:46.012Z,94.60
2019-04-29T04:58:15.192Z,94.40
2019-04-29T05:00:44.472Z,94.40
2019-04-29T05:03:16.047Z,94.50
2019-04-29T05:05:45.305Z,94.40
2019-04-29T05:08:14.521Z,94.50
2019-04-29T05:10:43.745Z,94.40
2019-04-29T05:13:26.993Z,94.40
2019-04-29T05:15:43.838Z,94.50
2019-04-29T05:18:13.030Z,94.50
2019-04-29T05:20:42.301Z,94.50
2019-04-29T05:23:11.569Z,94.50
2019-04-29T05:25:40.797Z,94.80
2019-04-29T05:28:10.131Z,94.80
2019-04-29T05:30:39.431Z,94.60
2019-04-29T05:33:08.730Z,94.70
2019-04-29T05:36:06.095Z,94.80
2019-04-29T05:38:57.521Z,94.80
2019-04-29T05:41:30.117Z,94.70
2019-04-29T05:44:19.042Z,94.80
2019-04-29T05:46:51.602Z,94.60
2019-04-29T05:49:25.917Z,94.60
2019-04-29T05:52:01.941Z,94.70
2019-04-29T05:54:33.489Z,94.90
2019-04-29T05:57:02.821Z,95.00
2019-04-29T05:59:32.132Z,94.90
2019-04-29T06:02:01.537Z,94.90
2019-04-29T06:04:30.874Z,95.00
2019-04-29T06:06:59.991Z,95.00
2019-04-29T06:09:29.182Z,95.20
2019-04-29T06:11:58.664Z,95.10
2019-04-29T06:14:27.921Z,95.20
2019-04-29T06:17:02.206Z,95.30
2019-04-29T06:19:28.246Z,95.10
2019-04-29T06:21:57.610Z,95.30
2019-04-29T06:24:28.414Z,95.30
2019-04-29T06:26:57.596Z,95.40
2019-04-29T06:29:27.358Z,95.40
2019-04-29T06:31:56.397Z,95.40
2019-04-29T06:34:25.544Z,95.60
2019-04-29T06:36:55.027Z,95.60
2019-04-29T06:39:24.195Z,95.40
2019-04-29T06:41:53.423Z,95.70
2019-04-29T06:44:22.566Z,95.50
2019-04-29T06:46:54.598Z,95.70
2019-04-29T06:49:22.580Z,95.90
2019-04-29T06:51:53.956Z,95.60
2019-04-29T06:54:23.473Z,95.60
2019-04-29T06:56:52.748Z,95.70
2019-04-29T06:59:22.828Z,95.60
2019-04-29T07:01:52.142Z,95.70
2019-04-29T07:04:21.560Z,95.70
2019-04-29T07:06:57.543Z,95.60
2019-04-29T07:09:24.899Z,95.50
2019-04-29T07:12:01.119Z,95.50
2019-04-29T07:14:28.341Z,95.50
2019-04-29T07:17:00.706Z,95.60
2019-04-29T07:19:28.351Z,95.50
2019-04-29T07:21:57.499Z,95.50
2019-04-29T07:24:26.719Z,95.40
2019-04-29T07:26:57.937Z,95.40
2019-04-29T07:29:30.832Z,95.40
2019-04-29T07:31:57.763Z,95.50
2019-04-29T07:34:28.989Z,95.40
2019-04-29T07:36:59.406Z,95.30
2019-04-29T07:39:31.747Z,95.20
2019-04-29T07:42:03.018Z,95.20
2019-04-29T07:44:43.705Z,95.20
2019-04-29T07:47:06.754Z,95.40
2019-04-29T07:49:36.065Z,95.30
2019-04-29T07:52:09.716Z,95.30
2019-04-29T07:54:36.875Z,95.40
2019-04-29T07:57:06.451Z,95.40
2019-04-29T07:59:38.282Z,95.60
2019-04-29T08:02:07.312Z,95.50
2019-04-29T08:04:36.726Z,95.60
2019-04-29T08:07:06.170Z,95.70
2019-04-29T08:09:35.779Z,95.60
2019-04-29T08:12:05.416Z,95.60
2019-04-29T08:14:34.820Z,95.70
2019-04-29T08:17:04.125Z,95.70
2019-04-29T08:19:33.430Z,95.70
2019-04-29T08:22:02.804Z,95.80
2019-04-29T08:24:32.224Z,95.70
2019-04-29T08:27:01.403Z,95.70
2019-04-29T08:29:35.820Z,95.70
2019-04-29T08:32:05.032Z,95.70
2019-04-29T08:34:34.661Z,95.80
2019-04-29T08:37:04.160Z,96.00
2019-04-29T08:39:33.613Z,95.80
2019-04-29T08:42:09.047Z,95.70
2019-04-29T08:44:54.615Z,95.80
2019-04-29T08:47:30.518Z,95.80
2019-04-29T08:49:55.948Z,95.60
2019-04-29T08:52:25.536Z,95.50
2019-04-29T08:54:57.129Z,95.30
2019-04-29T08:57:25.805Z,95.10
2019-04-29T08:59:54.908Z,94.60
2019-04-29T09:02:34.578Z,94.00
2019-04-29T09:04:55.551Z,93.90
2019-04-29T09:07:24.723Z,94.00
2019-04-29T09:12:29.024Z,94.10
2019-04-29T09:13:54.540Z,94.10
2019-04-29T09:14:55.933Z,94.00
2019-04-29T09:17:24.947Z,93.80
2019-04-29T09:19:54.354Z,93.60
2019-04-29T09:22:25.155Z,93.60
2019-04-29T09:25:12.161Z,93.40
2019-04-29T09:27:45.012Z,93.80
2019-04-29T09:30:15.858Z,93.90
2019-04-29T09:32:45.029Z,93.50
2019-04-29T09:35:15.846Z,93.40
2019-04-29T09:37:44.983Z,93.40
2019-04-29T09:40:16.817Z,93.30
2019-04-29T09:43:14.861Z,93.40
2019-04-29T09:45:58.792Z,93.00
2019-04-29T09:48:25.252Z,93.00
2019-04-29T09:50:54.483Z,93.10
2019-04-29T09:53:23.698Z,93.10
2019-04-29T09:55:53.080Z,93.00
2019-04-29T09:58:22.598Z,93.00
2019-04-29T10:01:23.017Z,93.20
2019-04-29T10:04:10.814Z,93.00
2019-04-29T10:06:40.882Z,93.00
2019-04-29T10:09:11.856Z,93.30
2019-04-29T10:11:41.333Z,93.10
2019-04-29T10:14:10.589Z,93.20
2019-04-29T10:16:55.166Z,92.90
2019-04-29T10:19:46.672Z,93.00
2019-04-29T10:22:16.020Z,93.10
2019-04-29T10:24:45.711Z,92.90
2019-04-29T10:27:14.803Z,93.00
2019-04-29T10:29:50.838Z,93.20
2019-04-29T10:32:20.285Z,93.30
2019-04-29T10:34:49.559Z,93.30
2019-04-29T10:37:23.212Z,93.00
2019-04-29T10:40:10.340Z,93.00
2019-04-29T10:42:37.293Z,93.00
2019-04-29T10:45:26.693Z,93.00
2019-04-29T10:48:02.515Z,93.00
2019-04-29T10:50:33.985Z,93.00
2019-04-29T10:53:03.173Z,92.80
2019-04-29T10:55:32.534Z,93.20
2019-04-29T10:58:02.120Z,93.00
2019-04-29T11:01:29.219Z,93.10
2019-04-29T11:04:00.695Z,93.00
2019-04-29T11:06:31.413Z,93.00
2019-04-29T11:09:09.659Z,92.90
2019-04-29T11:11:36.693Z,93.00
2019-04-29T11:14:05.968Z,93.00
2019-04-29T11:16:45.922Z,92.80
2019-04-29T11:19:06.434Z,92.90
2019-04-29T11:21:38.889Z,93.00
2019-04-29T11:24:17.349Z,93.00
2019-04-29T11:26:54.355Z,92.80
2019-04-29T11:29:27.396Z,92.90
2019-04-29T11:31:56.616Z,92.70
2019-04-29T11:34:33.365Z,92.70
2019-04-29T11:37:02.848Z,92.70
2019-04-29T11:39:32.218Z,92.70
2019-04-29T11:42:01.664Z,92.70
2019-04-29T11:44:31.933Z,92.70
2019-04-29T11:47:01.511Z,92.80
2019-04-29T11:49:37.517Z,92.50
2019-04-29T11:52:09.509Z,92.30
2019-04-29T11:54:41.241Z,92.10
2019-04-29T11:57:17.776Z,92.00
2019-04-29T12:00:02.962Z,92.10
2019-04-29T12:02:45.894Z,92.00
2019-04-29T12:05:22.364Z,92.00
2019-04-29T12:07:51.453Z,91.70
2019-04-29T12:10:20.808Z,91.60
2019-04-29T12:12:50.225Z,91.60
2019-04-29T12:15:40.245Z,91.70
2019-04-29T12:18:19.448Z,91.60
2019-04-29T12:20:56.494Z,91.50
2019-04-29T12:23:25.808Z,91.50
2019-04-29T12:25:58.650Z,91.30
2019-04-29T12:28:27.014Z,91.70
2019-04-29T12:30:58.498Z,91.50
2019-04-29T12:33:39.064Z,91.50
2019-04-29T12:36:10.696Z,91.50
2019-04-29T12:39:08.310Z,91.50
2019-04-29T12:41:55.265Z,91.50
2019-04-29T12:44:39.698Z,91.70
2019-04-29T12:47:26.639Z,91.50
2019-04-29T12:49:55.341Z,91.50
2019-04-29T12:52:24.838Z,91.30
2019-04-29T12:54:54.687Z,91.20
2019-04-29T12:57:24.746Z,91.30
2019-04-29T12:59:54.891Z,91.10
2019-04-29T13:02:42.148Z,91.20
2019-04-29T13:05:31.151Z,91.00
2019-04-29T13:08:23.160Z,90.90
2019-04-29T13:10:55.090Z,90.60
2019-04-29T13:13:26.511Z,90.20
2019-04-29T13:16:09.292Z,90.00
2019-04-29T13:18:43.770Z,89.50
2019-04-29T13:21:13.476Z,88.90
2019-04-29T13:23:55.449Z,88.00
2019-04-29T13:26:27.307Z,88.30
2019-04-29T13:29:03.243Z,88.00
2019-04-29T13:31:20.229Z,88.20
2019-04-29T13:33:52.998Z,87.90
2019-04-29T13:36:25.919Z,87.60
2019-04-29T13:38:53.366Z,88.40
2019-04-29T13:41:24.195Z,87.30
2019-04-29T13:44:04.108Z,87.60
2019-04-29T13:47:00.478Z,86.90
2019-04-29T13:49:42.962Z,87.20
2019-04-29T13:52:12.926Z,86.80
2019-04-29T13:54:43.948Z,86.60
2019-04-29T13:57:16.642Z,85.70
2019-04-29T13:59:53.406Z,86.00
2019-04-29T14:02:38.336Z,85.20
2019-04-29T14:05:08.714Z,85.60
2019-04-29T14:07:39.568Z,85.90
2019-04-29T14:10:10.240Z,85.40
2019-04-29T14:12:48.323Z,84.00
2019-04-29T14:15:16.224Z,84.30
2019-04-29T14:17:45.722Z,84.10
2019-04-29T14:20:17.323Z,84.20
2019-04-29T14:22:46.101Z,84.50
2019-04-29T14:25:15.500Z,83.70
2019-04-29T14:27:44.770Z,84.00
2019-04-29T14:30:16.995Z,82.90
2019-04-29T14:32:49.722Z,82.70
2019-04-29T14:35:38.827Z,80.20
2019-04-29T14:38:08.154Z,80.10
2019-04-29T14:40:39.142Z,79.80
2019-04-29T14:43:31.921Z,79.10
2019-04-29T14:46:16.823Z,78.90
2019-04-29T14:49:14.932Z,78.50
2019-04-29T14:51:45.809Z,79.10
2019-04-29T14:54:15.091Z,78.50
2019-04-29T14:56:55.594Z,78.60
2019-04-29T14:59:24.858Z,78.80
2019-04-29T15:02:04.704Z,78.70
2019-04-29T15:04:37.078Z,77.40
2019-04-29T15:07:08.663Z,77.10
2019-04-29T15:09:55.751Z,77.80
2019-04-29T15:13:19.756Z,77.90
2019-04-29T15:16:04.792Z,76.70
2019-04-29T15:18:47.302Z,76.30
2019-04-29T15:21:32.020Z,73.50
2019-04-29T15:23:55.761Z,70.90
2019-04-29T15:26:27.293Z,70.90
2019-04-29T15:28:56.422Z,69.40
2019-04-29T15:31:26.036Z,67.70
2019-04-29T15:33:55.206Z,64.80
2019-04-29T15:36:24.377Z,63.20
2019-04-29T15:39:08.715Z,62.70
2019-04-29T15:41:29.803Z,63.30
2019-04-29T15:44:06.272Z,64.30
2019-04-29T15:46:25.940Z,63.50
2019-04-29T15:48:55.063Z,61.40
2019-04-29T15:51:24.409Z,61.30
2019-04-29T15:53:54.525Z,62.00
2019-04-29T15:56:29.161Z,61.90
2019-04-29T15:58:59.540Z,59.30
2019-04-29T16:01:30.388Z,59.10
2019-04-29T16:04:01.299Z,56.30
2019-04-29T16:06:49.982Z,56.20
2019-04-29T16:09:50.569Z,56.90
2019-04-29T16:12:21.130Z,57.70
2019-04-29T16:14:53.322Z,57.20
2019-04-29T16:17:24.539Z,55.70
2019-04-29T16:19:53.605Z,55.70
2019-04-29T16:22:22.859Z,54.40
2019-04-29T16:24:59.002Z,55.60
2019-04-29T16:27:22.662Z,54.30
2019-04-29T16:29:54.122Z,52.00
2019-04-29T16:32:30.066Z,53.60
2019-04-29T16:34:59.404Z,52.10
2019-04-29T16:37:31.934Z,52.30
2019-04-29T16:40:01.191Z,51.80
2019-04-29T16:42:36.331Z,50.00
2019-04-29T16:45:12.122Z,49.60
2019-04-29T16:47:37.279Z,47.50
2019-04-29T16:50:06.646Z,46.00
2019-04-29T16:52:35.668Z,45.90
2019-04-29T16:55:06.048Z,47.70
2019-04-29T16:57:35.606Z,46.40
2019-04-29T17:00:13.473Z,46.90
2019-04-29T17:02:38.743Z,46.20
2019-04-29T17:05:08.911Z,44.70
2019-04-29T17:07:37.684Z,45.30
2019-04-29T17:10:20.422Z,46.10
2019-04-29T17:12:51.084Z,47.00
2019-04-29T17:15:25.108Z,45.30
2019-04-29T17:17:51.809Z,46.00
2019-04-29T17:20:21.778Z,45.10
2019-04-29T17:23:00.069Z,44.00
2019-04-29T17:25:29.286Z,44.20
2019-04-29T17:28:25.410Z,44.90
2019-04-29T17:31:13.899Z,44.70
2019-04-29T17:33:56.712Z,45.40
2019-04-29T17:36:26.067Z,45.50
2019-04-29T17:38:55.313Z,45.90
2019-04-29T17:41:24.588Z,44.30
2019-04-29T17:44:14.649Z,45.60
2019-04-29T17:47:01.053Z,45.90
2019-04-29T17:49:52.155Z,45.30
2019-04-29T17:52:25.972Z,47.70
2019-04-29T17:54:59.589Z,47.20
2019-04-29T17:57:36.404Z,49.10
2019-04-29T18:00:25.705Z,47.80
2019-04-29T18:03:15.182Z,47.80
2019-04-29T18:05:58.903Z,47.80
2019-04-29T18:08:50.115Z,47.00
2019-04-29T18:11:19.537Z,50.70
2019-04-29T18:13:52.437Z,47.30
2019-04-29T18:16:25.912Z,46.50
2019-04-29T18:19:01.640Z,50.00
2019-04-29T18:21:47.312Z,49.30
2019-04-29T18:24:37.357Z,49.50
2019-04-29T18:27:15.128Z,49.60
2019-04-29T18:29:45.419Z,47.00
2019-04-29T18:32:15.497Z,46.30
2019-04-29T18:34:45.274Z,45.30
2019-04-29T18:37:15.242Z,46.10
2019-04-29T18:39:45.658Z,46.00
2019-04-29T18:42:15.911Z,47.10
2019-04-29T18:44:55.104Z,46.20
2019-04-29T18:47:22.528Z,46.60
2019-04-29T18:49:47.323Z,46.80
2019-04-29T18:52:25.692Z,47.80
2019-04-29T18:54:47.937Z,47.40
2019-04-29T18:57:27.862Z,47.30
2019-04-29T18:59:54.993Z,48.00
2019-04-29T19:02:27.122Z,47.80
2019-04-29T19:05:00.766Z,48.50
2019-04-29T19:07:31.784Z,49.00
2019-04-29T19:10:01.065Z,49.10
2019-04-29T19:12:36.454Z,48.60
2019-04-29T19:15:14.964Z,49.30
2019-04-29T19:17:39.966Z,49.10
2019-04-29T19:20:08.641Z,49.50
2019-04-29T19:22:39.976Z,49.70
2019-04-29T19:25:11.745Z,50.90
2019-04-29T19:27:40.253Z,50.90
2019-04-29T19:30:15.942Z,50.30
2019-04-29T19:32:41.157Z,50.70
2019-04-29T19:35:11.301Z,50.60
2019-04-29T19:37:40.054Z,50.70
2019-04-29T19:40:09.802Z,50.80
2019-04-29T19:42:39.760Z,51.10
2019-04-29T19:45:13.183Z,52.40
2019-04-29T19:47:41.311Z,51.90
2019-04-29T19:50:16.686Z,51.40
2019-04-29T19:52:42.089Z,52.60
2019-04-29T19:55:11.350Z,52.30
2019-04-29T19:57:46.950Z,52.00
2019-04-29T20:00:12.721Z,52.10
2019-04-29T20:02:48.245Z,52.10
2019-04-29T20:05:23.138Z,52.40
2019-04-29T20:07:51.235Z,52.80
2019-04-29T20:10:21.855Z,53.30
2019-04-29T20:12:53.356Z,53.20
2019-04-29T20:15:32.490Z,53.30
2019-04-29T20:18:35.636Z,53.00
2019-04-29T20:21:09.103Z,53.50
2019-04-29T20:23:39.220Z,54.20
2019-04-29T20:26:15.646Z,53.70
2019-04-29T20:28:38.048Z,54.00
2019-04-29T20:31:16.268Z,54.50
2019-04-29T20:33:42.086Z,55.10
2019-04-29T20:36:10.623Z,55.10
2019-04-29T20:38:40.132Z,55.00
2019-04-29T20:41:13.104Z,55.10
2019-04-29T20:43:40.129Z,55.30
2019-04-29T20:46:09.724Z,55.00
2019-04-29T20:48:38.807Z,55.30
2019-04-29T20:51:13.269Z,55.60
2019-04-29T20:53:45.850Z,56.00
2019-04-29T20:56:23.674Z,56.00
2019-04-29T20:58:46.858Z,56.00
2019-04-29T21:01:25.479Z,56.30
2019-04-29T21:03:56.701Z,56.10
2019-04-29T21:06:25.710Z,56.60
2019-04-29T21:08:55.204Z,56.70
2019-04-29T21:11:35.630Z,56.90
2019-04-29T21:14:39.976Z,57.40
2019-04-29T21:17:10.954Z,57.60
2019-04-29T21:19:40.344Z,57.80
2019-04-29T21:22:21.935Z,58.60
2019-04-29T21:24:56.558Z,58.50
2019-04-29T21:27:26.143Z,58.60
2019-04-29T21:29:55.709Z,59.40
2019-04-29T21:32:25.774Z,59.10
2019-04-29T21:35:29.303Z,59.20
2019-04-29T21:38:26.019Z,59.30
2019-04-29T21:41:02.559Z,59.50
2019-04-29T21:43:32.789Z,60.20
2019-04-29T21:46:01.224Z,60.60
2019-04-29T21:48:33.673Z,60.90
2019-04-29T21:51:01.218Z,61.20
2019-04-29T21:53:31.611Z,61.50
2019-04-29T21:56:06.335Z,60.90
2019-04-29T21:58:32.933Z,61.40
2019-04-29T22:01:04.926Z,61.70
2019-04-29T22:03:34.290Z,62.30
2019-04-29T22:06:03.530Z,62.30
2019-04-29T22:08:32.884Z,63.00
2019-04-29T22:11:05.056Z,62.50
2019-04-29T22:13:35.577Z,62.80
2019-04-29T22:16:04.190Z,64.30
2019-04-29T22:18:33.388Z,63.70
2019-04-29T22:21:02.629Z,64.20
2019-04-29T22:23:32.067Z,64.20
2019-04-29T22:26:01.303Z,64.50
2019-04-29T22:28:30.403Z,65.00
2019-04-29T22:30:59.886Z,65.40
2019-04-29T22:33:29.654Z,65.60
2019-04-29T22:36:00.073Z,66.00
2019-04-29T22:38:29.318Z,66.20
2019-04-29T22:41:00.327Z,66.60
2019-04-29T22:43:48.607Z,67.00
2019-04-29T22:46:17.968Z,66.80
2019-04-29T22:48:49.197Z,67.60
2019-04-29T22:51:19.001Z,67.70
2019-04-29T22:53:48.463Z,67.90
2019-04-29T22:56:17.660Z,68.10
2019-04-29T22:58:47.449Z,68.70
2019-04-29T23:01:17.766Z,68.60
2019-04-29T23:03:47.270Z,68.90
2019-04-29T23:06:16.479Z,69.00
2019-04-29T23:08:45.747Z,69.10
2019-04-29T23:11:15.000Z,69.50
2019-04-29T23:13:46.182Z,69.50
2019-04-29T23:16:15.138Z,69.40
2019-04-29T23:18:45.862Z,69.90
2019-04-29T23:21:36.056Z,70.50
2019-04-29T23:24:17.221Z,70.30
2019-04-29T23:26:44.899Z,71.00
2019-04-29T23:29:15.589Z,70.80
2019-04-29T23:31:45.367Z,71.20
2019-04-29T23:34:15.523Z,71.40
2019-04-29T23:36:48.986Z,71.60
2019-04-29T23:39:16.331Z,71.90
2019-04-29T23:41:45.571Z,72.10
2019-04-29T23:44:16.553Z,72.00
2019-04-29T23:46:47.444Z,72.20
2019-04-29T23:49:16.537Z,72.60
2019-04-29T23:51:46.439Z,72.50
2019-04-29T23:54:16.210Z,72.70
2019-04-29T23:57:02.979Z,72.80
2019-04-29T23:59:35.230Z,73.30
